createdAt,value
2023-03-30T00:00:48.666Z,25.52
2023-03-30T00:03:33.903Z,21.17
2023-03-30T00:06:22.166Z,20.75
2023-03-30T00:09:07.140Z,23.10
2023-03-30T00:14:41.841Z,21.27
2023-03-30T00:17:26.638Z,23.27
2023-03-30T00:23:01.077Z,15.38
2023-03-30T00:25:45.742Z,15.57
2023-03-30T00:28:31.216Z,17.45
2023-03-30T00:31:16.312Z,19.02
2023-03-30T00:36:48.626Z,23.27
2023-03-30T00:39:33.540Z,19.52
2023-03-30T00:42:19.212Z,17.60
2023-03-30T00:45:40.863Z,17.83
2023-03-30T00:48:32.297Z,14.85
2023-03-30T00:54:15.934Z,14.82
2023-03-30T00:57:00.786Z,17.23
2023-03-30T00:59:46.983Z,17.02
2023-03-30T01:02:37.018Z,14.98
2023-03-30T01:05:23.689Z,14.85
2023-03-30T01:08:13.235Z,13.75
2023-03-30T01:11:04.756Z,18.65
2023-03-30T01:13:58.682Z,13.10
2023-03-30T01:17:13.130Z,16.10
2023-03-30T01:20:15.961Z,14.35
2023-03-30T01:23:34.738Z,13.93
2023-03-30T01:27:04.548Z,12.73
2023-03-30T01:30:19.558Z,15.35
2023-03-30T01:33:23.085Z,20.83
2023-03-30T01:36:17.270Z,16.00
2023-03-30T01:39:14.487Z,18.42
2023-03-30T01:42:09.676Z,19.33
2023-03-30T01:45:09.050Z,16.20
2023-03-30T01:48:15.881Z,20.83
2023-03-30T01:51:08.155Z,14.23
2023-03-30T01:54:01.449Z,18.10
2023-03-30T01:57:22.820Z,15.13
2023-03-30T02:00:58.015Z,15.68
2023-03-30T02:03:47.925Z,11.20
2023-03-30T02:06:40.153Z,12.95
2023-03-30T02:09:26.469Z,18.27
2023-03-30T02:12:12.641Z,17.75
2023-03-30T02:15:03.317Z,25.95
2023-03-30T02:17:48.352Z,23.23
2023-03-30T02:20:34.712Z,34.97
2023-03-30T02:23:22.517Z,28.88
2023-03-30T02:26:07.974Z,29.95
2023-03-30T02:28:52.994Z,33.85
2023-03-30T02:31:38.782Z,34.63
2023-03-30T02:34:39.232Z,30.70
2023-03-30T02:38:00.106Z,33.00
2023-03-30T02:41:31.253Z,33.15
2023-03-30T02:44:31.662Z,31.35
2023-03-30T02:47:32.433Z,41.63
2023-03-30T02:50:17.496Z,32.42
2023-03-30T02:53:20.205Z,32.58
2023-03-30T02:56:28.536Z,32.83
2023-03-30T02:59:29.997Z,37.88
2023-03-30T03:02:36.733Z,32.30
2023-03-30T03:05:34.952Z,33.53
2023-03-30T03:08:39.047Z,35.30
2023-03-30T03:11:26.540Z,31.95
2023-03-30T03:14:11.612Z,34.42
2023-03-30T03:16:57.012Z,36.95
2023-03-30T03:19:48.510Z,33.17
2023-03-30T03:22:36.290Z,35.28
2023-03-30T03:25:21.103Z,33.10
2023-03-30T03:28:14.155Z,33.17
2023-03-30T03:31:03.404Z,27.58
2023-03-30T03:33:50.108Z,28.55
2023-03-30T03:36:40.369Z,27.35
2023-03-30T03:39:25.309Z,28.90
2023-03-30T03:42:15.066Z,27.67
2023-03-30T03:45:10.850Z,27.10
2023-03-30T03:48:08.009Z,26.02
2023-03-30T03:51:05.273Z,24.85
2023-03-30T03:53:53.266Z,26.75
2023-03-30T03:56:38.282Z,32.83
2023-03-30T03:59:23.391Z,29.92
2023-03-30T04:02:08.131Z,31.58
2023-03-30T04:04:53.077Z,26.63
2023-03-30T04:07:38.987Z,29.70
2023-03-30T04:13:39.725Z,26.75
2023-03-30T04:16:46.582Z,23.08
2023-03-30T04:19:54.413Z,23.50
2023-03-30T04:23:01.140Z,30.98
2023-03-30T04:26:04.775Z,30.38
2023-03-30T04:29:20.133Z,37.85
2023-03-30T04:32:24.347Z,35.35
2023-03-30T04:35:16.030Z,27.42
2023-03-30T04:38:21.608Z,31.25
2023-03-30T04:41:29.308Z,30.40
2023-03-30T04:44:32.526Z,36.72
2023-03-30T04:47:37.731Z,31.60
2023-03-30T04:50:41.350Z,31.42
2023-03-30T04:53:49.773Z,26.27
2023-03-30T04:56:57.485Z,22.23
2023-03-30T04:59:57.577Z,21.73
2023-03-30T05:03:08.936Z,26.30
2023-03-30T05:06:32.375Z,21.08
2023-03-30T05:09:37.864Z,26.67
2023-03-30T05:12:42.015Z,31.75
2023-03-30T05:15:54.959Z,26.20
2023-03-30T05:19:15.307Z,24.65
2023-03-30T05:22:27.613Z,25.35
2023-03-30T05:25:31.324Z,29.42
2023-03-30T05:28:26.145Z,23.40
2023-03-30T05:31:28.416Z,20.08
2023-03-30T05:34:32.601Z,24.42
2023-03-30T05:37:38.315Z,21.23
2023-03-30T05:41:07.061Z,22.02
2023-03-30T05:44:24.272Z,22.00
2023-03-30T05:47:28.497Z,24.45
2023-03-30T05:50:35.611Z,25.17
2023-03-30T05:53:22.762Z,26.95
2023-03-30T05:56:27.128Z,25.08
2023-03-30T05:59:34.442Z,27.77
2023-03-30T06:02:31.392Z,26.25
2023-03-30T06:05:22.411Z,30.10
2023-03-30T06:08:10.270Z,31.33
2023-03-30T06:11:31.216Z,27.85
2023-03-30T06:14:30.008Z,31.02
2023-03-30T06:18:12.311Z,27.45
2023-03-30T06:25:55.077Z,25.70
2023-03-30T06:28:45.827Z,26.08
2023-03-30T06:31:30.927Z,25.10
2023-03-30T06:34:38.508Z,21.77
2023-03-30T06:37:26.494Z,16.75
2023-03-30T06:40:13.440Z,18.63
2023-03-30T06:43:08.492Z,19.10
2023-03-30T06:45:56.867Z,22.35
2023-03-30T06:48:43.537Z,19.15
2023-03-30T06:51:47.118Z,18.30
2023-03-30T06:54:37.457Z,20.40
2023-03-30T06:57:26.493Z,19.02
2023-03-30T07:00:14.714Z,14.32
2023-03-30T07:03:22.730Z,17.42
2023-03-30T07:06:22.144Z,20.35
2023-03-30T07:09:08.817Z,13.93
2023-03-30T07:11:55.854Z,13.60
2023-03-30T07:14:44.443Z,13.98
2023-03-30T07:18:02.948Z,12.43
2023-03-30T07:21:09.200Z,12.60
2023-03-30T07:23:57.548Z,12.88
2023-03-30T07:26:48.286Z,11.98
2023-03-30T07:29:33.133Z,12.68
2023-03-30T07:32:18.847Z,14.98
2023-03-30T07:35:03.988Z,13.43
2023-03-30T07:37:50.876Z,15.50
2023-03-30T07:40:36.358Z,18.73
2023-03-30T07:43:24.495Z,16.42
2023-03-30T07:46:24.366Z,14.23
2023-03-30T07:49:13.043Z,14.35
2023-03-30T07:51:58.632Z,13.80
2023-03-30T07:54:53.936Z,14.70
2023-03-30T07:57:53.856Z,13.52
2023-03-30T08:00:39.223Z,13.10
2023-03-30T08:03:44.628Z,11.30
2023-03-30T08:06:31.799Z,11.90
2023-03-30T08:13:02.342Z,11.77
2023-03-30T08:15:50.319Z,12.20
2023-03-30T08:18:37.285Z,10.13
2023-03-30T08:21:25.594Z,11.45
2023-03-30T08:24:10.497Z,9.52
2023-03-30T08:26:58.369Z,11.07
2023-03-30T08:29:43.662Z,9.18
2023-03-30T08:32:28.398Z,8.82
2023-03-30T08:35:14.389Z,10.40
2023-03-30T08:38:03.180Z,8.07
2023-03-30T08:40:51.108Z,8.05
2023-03-30T08:43:57.030Z,7.57
2023-03-30T08:46:43.732Z,9.00
2023-03-30T08:49:33.038Z,9.40
2023-03-30T08:52:23.322Z,9.63
2023-03-30T08:55:54.622Z,9.05
2023-03-30T08:59:28.207Z,8.57
2023-03-30T09:02:48.982Z,9.02
2023-03-30T09:06:50.142Z,8.45
2023-03-30T09:10:12.483Z,9.63
2023-03-30T09:13:03.101Z,8.63
2023-03-30T09:15:53.306Z,9.13
2023-03-30T09:19:28.323Z,9.70
2023-03-30T09:22:14.566Z,7.88
2023-03-30T09:24:59.404Z,8.75
2023-03-30T09:28:07.722Z,8.00
2023-03-30T09:31:34.320Z,9.07
2023-03-30T09:34:28.304Z,6.82
2023-03-30T09:38:19.768Z,8.13
2023-03-30T09:41:36.275Z,7.00
2023-03-30T09:44:37.261Z,8.13
2023-03-30T09:47:38.359Z,8.15
2023-03-30T09:50:28.252Z,7.95
2023-03-30T09:56:49.591Z,9.50
2023-03-30T09:59:49.494Z,8.60
2023-03-30T10:02:58.369Z,7.30
2023-03-30T10:06:06.981Z,6.82
2023-03-30T10:09:20.848Z,7.40
2023-03-30T10:12:06.817Z,8.13
2023-03-30T10:14:57.805Z,6.90
2023-03-30T10:17:46.340Z,7.63
2023-03-30T10:20:38.338Z,7.75
2023-03-30T10:24:04.994Z,7.38
2023-03-30T10:26:56.649Z,6.07
2023-03-30T10:29:50.236Z,5.80
2023-03-30T10:32:35.972Z,7.97
2023-03-30T10:35:31.197Z,6.03
2023-03-30T10:38:19.929Z,6.15
2023-03-30T10:41:15.658Z,5.93
2023-03-30T10:44:30.500Z,8.70
2023-03-30T10:47:52.572Z,6.60
2023-03-30T10:54:05.549Z,6.95
2023-03-30T10:56:56.646Z,6.30
2023-03-30T10:59:44.430Z,7.95
2023-03-30T11:03:04.502Z,8.57
2023-03-30T11:05:54.000Z,6.35
2023-03-30T11:08:42.284Z,7.72
2023-03-30T11:11:37.953Z,7.00
2023-03-30T11:14:40.952Z,6.03
2023-03-30T11:17:31.142Z,6.95
2023-03-30T11:20:32.325Z,7.43
2023-03-30T11:23:46.203Z,6.50
2023-03-30T11:26:51.959Z,5.68
2023-03-30T11:29:45.613Z,6.32
2023-03-30T11:32:57.099Z,5.68
2023-03-30T11:35:50.484Z,4.70
2023-03-30T11:38:43.666Z,4.30
2023-03-30T11:41:39.679Z,6.10
2023-03-30T11:44:24.548Z,5.43
2023-03-30T11:47:13.405Z,5.10
2023-03-30T11:50:22.704Z,4.97
2023-03-30T11:53:26.660Z,5.15
2023-03-30T11:56:26.466Z,7.00
2023-03-30T11:59:52.831Z,4.85
2023-03-30T12:03:16.455Z,5.05
2023-03-30T12:06:31.204Z,5.63
2023-03-30T12:09:26.596Z,3.85
2023-03-30T12:12:15.111Z,5.47
2023-03-30T12:15:19.278Z,4.78
2023-03-30T12:18:41.614Z,5.85
2023-03-30T12:21:35.676Z,6.32
2023-03-30T12:24:23.443Z,5.03
2023-03-30T12:27:11.098Z,6.65
2023-03-30T12:30:12.680Z,4.97
2023-03-30T12:33:11.594Z,4.78
2023-03-30T12:35:59.030Z,5.75
2023-03-30T12:38:46.093Z,5.40
2023-03-30T12:41:57.527Z,5.47
2023-03-30T12:45:00.955Z,5.60
2023-03-30T12:47:57.582Z,5.72
2023-03-30T12:51:31.401Z,6.15
2023-03-30T12:54:27.735Z,6.70
2023-03-30T12:57:57.305Z,5.57
2023-03-30T13:01:11.635Z,5.82
2023-03-30T13:04:01.623Z,7.72
2023-03-30T13:06:55.197Z,5.88
2023-03-30T13:09:55.898Z,7.00
2023-03-30T13:12:41.420Z,6.70
2023-03-30T13:15:46.292Z,6.80
2023-03-30T13:18:39.112Z,7.30
2023-03-30T13:21:25.351Z,6.32
2023-03-30T13:24:31.662Z,9.45
2023-03-30T13:27:19.209Z,5.53
2023-03-30T13:30:12.278Z,6.75
2023-03-30T13:33:20.939Z,7.38
2023-03-30T13:36:18.253Z,6.07
2023-03-30T13:39:32.024Z,7.30
2023-03-30T13:42:22.310Z,6.53
2023-03-30T13:45:26.206Z,7.68
2023-03-30T13:48:38.671Z,6.50
2023-03-30T13:51:26.919Z,7.25
2023-03-30T13:54:34.324Z,8.40
2023-03-30T13:57:24.944Z,7.30
2023-03-30T14:00:39.378Z,9.48
2023-03-30T14:03:36.536Z,9.23
2023-03-30T14:06:23.090Z,6.32
2023-03-30T14:09:11.550Z,8.07
2023-03-30T14:12:03.968Z,7.80
2023-03-30T14:14:50.020Z,6.50
2023-03-30T14:17:34.712Z,7.22
2023-03-30T14:20:34.618Z,7.28
2023-03-30T14:23:22.179Z,9.95
2023-03-30T14:26:17.435Z,7.03
2023-03-30T14:29:13.129Z,9.20
2023-03-30T14:32:08.062Z,8.25
2023-03-30T14:34:54.443Z,7.18
2023-03-30T14:37:39.320Z,8.43
2023-03-30T14:40:24.364Z,8.80
2023-03-30T14:43:15.256Z,8.77
2023-03-30T14:46:04.944Z,10.25
2023-03-30T14:48:50.886Z,7.13
2023-03-30T14:51:39.858Z,8.23
2023-03-30T14:54:25.316Z,7.93
2023-03-30T14:57:11.659Z,8.40
2023-03-30T15:00:01.359Z,9.82
2023-03-30T15:02:55.541Z,8.32
2023-03-30T15:05:42.137Z,7.95
2023-03-30T15:08:31.248Z,10.30
2023-03-30T15:11:25.811Z,6.13
2023-03-30T15:14:16.606Z,6.55
2023-03-30T15:17:10.362Z,7.80
2023-03-30T15:19:58.271Z,10.85
2023-03-30T15:22:51.138Z,15.77
2023-03-30T15:25:35.975Z,14.27
2023-03-30T15:28:20.929Z,11.43
2023-03-30T15:31:06.287Z,12.88
2023-03-30T15:33:53.960Z,14.07
2023-03-30T15:36:40.043Z,13.20
2023-03-30T15:39:33.206Z,13.52
2023-03-30T15:42:28.374Z,12.85
2023-03-30T15:45:13.945Z,12.75
2023-03-30T15:47:58.805Z,15.90
2023-03-30T15:50:48.723Z,15.80
2023-03-30T15:53:40.371Z,13.32
2023-03-30T15:56:31.539Z,13.02
2023-03-30T15:59:20.206Z,13.38
2023-03-30T16:02:15.776Z,13.25
2023-03-30T16:05:01.559Z,16.85
2023-03-30T16:07:46.625Z,15.40
2023-03-30T16:10:32.855Z,14.65
2023-03-30T16:13:18.098Z,19.25
2023-03-30T16:16:03.882Z,22.42
2023-03-30T16:18:48.815Z,24.52
2023-03-30T16:21:33.614Z,22.98
2023-03-30T16:24:18.190Z,24.52
2023-03-30T16:27:05.258Z,21.55
2023-03-30T16:29:50.303Z,21.85
2023-03-30T16:32:35.817Z,24.42
2023-03-30T16:35:20.764Z,25.30
2023-03-30T16:38:05.951Z,24.98
2023-03-30T16:40:57.619Z,28.10
2023-03-30T16:43:42.221Z,30.10
2023-03-30T16:46:27.179Z,29.13
2023-03-30T16:49:18.511Z,31.85
2023-03-30T16:52:04.714Z,27.52
2023-03-30T16:54:49.235Z,25.85
2023-03-30T16:57:34.365Z,32.72
2023-03-30T17:00:23.486Z,35.60
2023-03-30T17:03:08.977Z,33.10
2023-03-30T17:05:54.822Z,33.72
2023-03-30T17:08:40.949Z,36.08
2023-03-30T17:11:26.997Z,35.03
2023-03-30T17:16:56.337Z,23.95
2023-03-30T17:19:41.554Z,18.77
2023-03-30T17:22:26.748Z,19.13
2023-03-30T17:25:11.844Z,22.73
2023-03-30T17:27:56.974Z,28.23
2023-03-30T17:30:41.667Z,27.40
2023-03-30T17:33:26.851Z,24.85
2023-03-30T17:36:18.987Z,25.80
2023-03-30T17:39:04.221Z,22.90
2023-03-30T17:41:49.215Z,24.45
2023-03-30T17:44:36.370Z,30.88
2023-03-30T17:47:21.047Z,25.70
2023-03-30T17:50:27.681Z,21.30
2023-03-30T17:53:16.797Z,22.88
2023-03-30T17:56:01.382Z,20.08
2023-03-30T18:01:31.772Z,17.25
2023-03-30T18:04:17.675Z,15.43
2023-03-30T18:07:02.603Z,19.83
2023-03-30T18:09:48.536Z,20.48
2023-03-30T18:12:33.172Z,19.48
2023-03-30T18:18:04.041Z,20.10
2023-03-30T18:20:50.656Z,29.65
2023-03-30T18:23:35.384Z,28.67
2023-03-30T18:26:20.785Z,33.30
2023-03-30T18:29:19.306Z,40.05
2023-03-30T18:32:04.260Z,49.13
2023-03-30T18:34:48.820Z,66.95
2023-03-30T18:37:33.467Z,52.72
2023-03-30T18:40:22.139Z,38.22
2023-03-30T18:43:07.443Z,30.42
2023-03-30T18:45:53.208Z,26.00
2023-03-30T18:48:37.838Z,18.02
2023-03-30T18:51:22.713Z,18.38
2023-03-30T18:54:07.249Z,22.20
2023-03-30T18:56:52.353Z,33.20
2023-03-30T18:59:40.438Z,26.85
2023-03-30T19:02:25.761Z,26.60
2023-03-30T19:05:10.973Z,26.73
2023-03-30T19:07:56.335Z,26.13
2023-03-30T19:10:43.688Z,21.30
2023-03-30T19:13:28.445Z,19.38
2023-03-30T19:16:15.973Z,25.88
2023-03-30T19:19:00.864Z,31.80
2023-03-30T19:21:45.868Z,32.40
2023-03-30T19:24:30.759Z,48.85
2023-03-30T19:27:15.875Z,64.63
2023-03-30T19:30:00.883Z,45.90
2023-03-30T19:32:46.406Z,37.78
2023-03-30T19:35:32.020Z,32.85
2023-03-30T19:38:17.075Z,22.48
2023-03-30T19:41:04.041Z,19.25
2023-03-30T19:43:50.044Z,15.85
2023-03-30T19:46:35.391Z,17.27
2023-03-30T19:49:20.425Z,12.93
2023-03-30T19:52:05.931Z,16.77
2023-03-30T19:54:51.696Z,19.40
2023-03-30T19:57:37.099Z,17.88
2023-03-30T20:00:22.039Z,30.45
2023-03-30T20:03:06.809Z,32.65
2023-03-30T20:05:51.847Z,27.10
2023-03-30T20:08:37.285Z,22.13
2023-03-30T20:11:22.648Z,15.43
2023-03-30T20:14:08.261Z,15.63
2023-03-30T20:16:54.026Z,17.70
2023-03-30T20:19:40.040Z,17.83
2023-03-30T20:22:25.247Z,16.95
2023-03-30T20:25:12.767Z,11.93
2023-03-30T20:27:57.618Z,13.23
2023-03-30T20:30:42.526Z,14.30
2023-03-30T20:33:29.356Z,14.20
2023-03-30T20:36:15.812Z,11.10
2023-03-30T20:39:01.283Z,11.38
2023-03-30T20:41:46.187Z,9.48
2023-03-30T20:44:31.211Z,9.70
2023-03-30T20:47:16.997Z,11.13
2023-03-30T20:50:02.901Z,11.38
2023-03-30T20:52:47.708Z,10.27
2023-03-30T20:55:32.695Z,11.93
2023-03-30T20:58:17.649Z,10.65
2023-03-30T21:01:12.361Z,10.68
2023-03-30T21:03:58.901Z,11.40
2023-03-30T21:06:44.232Z,13.48
2023-03-30T21:09:29.385Z,10.77
2023-03-30T21:12:14.167Z,11.07
2023-03-30T21:14:58.985Z,12.57
2023-03-30T21:17:44.111Z,11.60
2023-03-30T21:20:30.404Z,13.00
2023-03-30T21:23:15.478Z,13.32
2023-03-30T21:26:03.542Z,13.80
2023-03-30T21:28:48.470Z,13.98
2023-03-30T21:31:33.679Z,13.90
2023-03-30T21:34:19.640Z,14.32
2023-03-30T21:37:04.767Z,11.13
2023-03-30T21:39:50.524Z,12.15
2023-03-30T21:42:35.144Z,13.52
2023-03-30T21:45:20.212Z,13.52
2023-03-30T21:48:05.268Z,12.75
2023-03-30T21:50:56.051Z,12.52
2023-03-30T21:53:42.172Z,14.95
2023-03-30T21:56:29.692Z,13.18
2023-03-30T21:59:14.789Z,15.93
2023-03-30T22:01:59.820Z,14.88
2023-03-30T22:04:44.673Z,14.23
2023-03-30T22:07:29.310Z,16.48
2023-03-30T22:10:14.358Z,18.60
2023-03-30T22:12:59.671Z,15.75
2023-03-30T22:15:58.450Z,16.02
2023-03-30T22:18:43.894Z,16.67
2023-03-30T22:21:33.358Z,14.52
2023-03-30T22:24:18.676Z,14.55
2023-03-30T22:27:03.719Z,15.32
2023-03-30T22:29:48.811Z,15.52
2023-03-30T22:32:34.178Z,12.77
2023-03-30T22:35:19.271Z,12.65
2023-03-30T22:38:05.753Z,11.93
2023-03-30T22:40:50.998Z,13.32
2023-03-30T22:43:36.127Z,13.93
2023-03-30T22:46:22.470Z,14.60
2023-03-30T22:49:07.678Z,11.48
2023-03-30T22:51:53.242Z,11.75
2023-03-30T22:54:37.994Z,11.77
2023-03-30T22:57:22.944Z,12.68
2023-03-30T23:00:09.836Z,13.00
2023-03-30T23:02:54.651Z,18.25
2023-03-30T23:05:39.443Z,12.57
2023-03-30T23:08:24.457Z,10.60
2023-03-30T23:11:09.247Z,12.45
2023-03-30T23:16:39.823Z,12.30
2023-03-30T23:19:25.391Z,11.63
2023-03-30T23:22:13.970Z,10.05
2023-03-30T23:24:58.526Z,9.82
2023-03-30T23:27:43.523Z,8.35
2023-03-30T23:30:28.524Z,9.02
2023-03-30T23:33:13.791Z,10.02
2023-03-30T23:35:58.613Z,6.90
2023-03-30T23:38:43.157Z,8.38
2023-03-30T23:41:28.440Z,8.35
2023-03-30T23:44:13.168Z,9.63
2023-03-30T23:46:58.251Z,12.75
2023-03-30T23:49:43.217Z,7.82
2023-03-30T23:52:28.224Z,8.52
2023-03-30T23:57:57.339Z,8.00
